Terminal Aerodrome Forecast
Issued by NWS Grand Forks, ND

Home | Current Version | Previous Version | Text Only | Print | Product List | Glossary On
Versions: 1 2 3 4 5 6 7 8 9 10 11 12 13 14 15 16 17 18 19 20
276
FTUS43 KFGF 270520
TAFFAR
TAF
KFAR 270520Z 2706/2806 36013KT P6SM BKN035
      TEMPO 2706/2709 4SM -SN BR BKN012
     FM271100 36008KT P6SM OVC025
     FM271600 33014G19KT P6SM BKN035
     FM280200 33008KT P6SM BKN040=

USA.gov is the U.S. government's official web portal to all federal, state and local government web resources and services.